Terminal Aerodrome Forecast
Issued by NWS

Home | Current Version | Previous Version | Text Only | Print | Product List | Glossary Off
Versions: 1 2 3 4 5 6 7 8 9 10 11 12 13 14 15

000
FTUS43 KBIS 221120
TAFDIK
TAF
KDIK 221120Z 2212/2312 18005KT P6SM SCT200
     FM222100 15007KT P6SM VCTS SCT050CB BKN200
     FM230000 10009KT P6SM VCTS SCT050CB BKN200
     FM230600 14009KT P6SM VCTS BKN200CB
     FM231100 10007KT P6SM VCTS BKN050CB=

USA.gov is the U.S. government's official web portal to all federal, state and local government web resources and services.